createdAt,value
2022-12-06T00:00:16.192Z,68.2
2022-12-06T00:01:32.393Z,68.2
2022-12-06T00:02:48.568Z,68.4
2022-12-06T00:04:04.754Z,68.5
2022-12-06T00:05:21.062Z,68.3
2022-12-06T00:06:36.259Z,68.3
2022-12-06T00:07:52.452Z,68.5
2022-12-06T00:09:08.534Z,68.7
2022-12-06T00:10:24.723Z,68.5
2022-12-06T00:11:41.024Z,68.5
2022-12-06T00:12:57.083Z,68.7
2022-12-06T00:14:13.283Z,68.7
2022-12-06T00:15:28.501Z,68.5
2022-12-06T00:16:43.818Z,68.7
2022-12-06T00:17:59.029Z,68.4
2022-12-06T00:19:14.240Z,68.6
2022-12-06T00:20:30.306Z,68.6
2022-12-06T00:21:46.507Z,68.5
2022-12-06T00:23:02.676Z,68.7
2022-12-06T00:24:18.881Z,68.3
2022-12-06T00:25:35.067Z,68.7
2022-12-06T00:26:51.354Z,68.5
2022-12-06T00:28:07.439Z,68.3
2022-12-06T00:29:23.739Z,68.5
2022-12-06T00:30:39.918Z,68.3
2022-12-06T00:31:55.992Z,68.5
2022-12-06T00:33:12.194Z,68.8
2022-12-06T00:34:28.369Z,68.8
2022-12-06T00:35:43.574Z,68.8
2022-12-06T00:36:59.754Z,69
2022-12-06T00:38:16.066Z,68.7
2022-12-06T00:39:32.237Z,68.6
2022-12-06T00:40:48.336Z,68.5
2022-12-06T00:42:04.624Z,68.3
2022-12-06T00:43:20.693Z,68.3
2022-12-06T00:44:36.013Z,68.3
2022-12-06T00:45:51.138Z,68.5
2022-12-06T00:47:07.301Z,68.4
2022-12-06T00:48:23.494Z,68.6
2022-12-06T00:49:39.682Z,68.6
2022-12-06T00:50:55.967Z,68.8
2022-12-06T00:52:12.059Z,68.7
2022-12-06T00:53:28.240Z,68.4
2022-12-06T00:54:44.539Z,68.8
2022-12-06T00:56:00.725Z,68.8
2022-12-06T00:57:16.808Z,68.8
2022-12-06T00:58:32.989Z,68.8
2022-12-06T00:59:49.173Z,68.8
2022-12-06T01:01:05.367Z,68.8
2022-12-06T01:02:20.677Z,68.8
2022-12-06T01:03:36.751Z,68.8
2022-12-06T01:04:53.043Z,68.6
2022-12-06T01:06:09.141Z,68.5
2022-12-06T01:07:25.331Z,68.7
2022-12-06T01:08:41.615Z,68.6
2022-12-06T01:09:57.705Z,68.7
2022-12-06T01:11:12.916Z,68.8
2022-12-06T01:12:28.224Z,68.8
2022-12-06T01:13:44.309Z,68.7
2022-12-06T01:15:00.595Z,68.5
2022-12-06T01:16:16.672Z,68.5
2022-12-06T01:17:32.861Z,68.3
2022-12-06T01:18:49.052Z,68.4
2022-12-06T01:20:05.243Z,68.4
2022-12-06T01:21:21.531Z,68.2
2022-12-06T01:22:37.609Z,68.2
2022-12-06T01:23:53.796Z,68.5
2022-12-06T01:25:09.995Z,68.8
2022-12-06T01:26:26.186Z,68.7
2022-12-06T01:27:42.459Z,68.5
2022-12-06T01:28:57.577Z,68.8
2022-12-06T01:30:13.764Z,68.8
2022-12-06T01:31:29.950Z,68.8
2022-12-06T01:32:46.134Z,68.8
2022-12-06T01:34:02.407Z,68.5
2022-12-06T01:35:18.607Z,68.8
2022-12-06T01:36:34.689Z,68.7
2022-12-06T01:37:49.997Z,68.5
2022-12-06T01:39:05.131Z,68.8
2022-12-06T01:40:21.394Z,68.8
2022-12-06T01:41:37.495Z,68.8
2022-12-06T01:42:53.677Z,68.8
2022-12-06T01:44:09.861Z,68.8
2022-12-06T01:45:26.057Z,68.8
2022-12-06T01:46:42.240Z,68.8
2022-12-06T01:47:58.000Z,68.8
2022-12-06T01:49:14.617Z,68.8
2022-12-06T01:50:30.895Z,68.8
2022-12-06T01:51:46.984Z,68.8
2022-12-06T01:53:03.179Z,68.7
2022-12-06T01:54:19.365Z,68.5
2022-12-06T01:55:34.564Z,68.8
2022-12-06T01:56:50.753Z,69
2022-12-06T01:58:07.032Z,68.5
2022-12-06T01:59:23.218Z,68.5
2022-12-06T02:00:39.309Z,68.5
2022-12-06T02:01:55.505Z,68.8
2022-12-06T02:03:11.783Z,68.7
2022-12-06T02:04:26.911Z,68.5
2022-12-06T02:05:42.205Z,68.8
2022-12-06T02:06:58.290Z,68.5
2022-12-06T02:08:14.576Z,68.5
2022-12-06T02:09:30.749Z,68.3
2022-12-06T02:10:46.866Z,68.5
2022-12-06T02:12:03.127Z,68.8
2022-12-06T02:13:19.318Z,69
2022-12-06T02:14:35.513Z,69.1
2022-12-06T02:15:51.699Z,68.8
2022-12-06T02:17:07.793Z,68.7
2022-12-06T02:18:23.982Z,68.8
2022-12-06T02:19:40.179Z,69.1
2022-12-06T02:20:56.448Z,69.1
2022-12-06T02:22:11.562Z,69.1
2022-12-06T02:23:27.749Z,69.1
2022-12-06T02:24:43.950Z,69.1
2022-12-06T02:26:00.210Z,68.7
2022-12-06T02:27:16.324Z,68.8
2022-12-06T02:28:32.501Z,68.2
2022-12-06T02:29:48.704Z,68.8
2022-12-06T02:31:04.881Z,68.8
2022-12-06T02:32:21.085Z,68.8
2022-12-06T02:33:37.272Z,68.5
2022-12-06T02:34:53.456Z,68.7
2022-12-06T02:36:09.724Z,68.5
2022-12-06T02:37:25.914Z,68.3
2022-12-06T02:38:41.039Z,68.3
2022-12-06T02:39:57.234Z,68.5
2022-12-06T02:41:13.409Z,68.2
2022-12-06T02:42:29.612Z,68.2
2022-12-06T02:43:45.872Z,68.2
2022-12-06T02:45:01.972Z,68.3
2022-12-06T02:46:18.243Z,68.5
2022-12-06T02:47:34.365Z,68.5
2022-12-06T02:48:50.636Z,68.5
2022-12-06T02:50:06.815Z,68.3
2022-12-06T02:51:23.014Z,68.1
2022-12-06T02:52:39.107Z,68.1
2022-12-06T02:53:55.297Z,68.3
2022-12-06T02:55:10.499Z,68.7
2022-12-06T02:56:26.783Z,68.7
2022-12-06T02:57:42.877Z,69
2022-12-06T02:58:59.155Z,68.5
2022-12-06T03:00:15.347Z,68.3
2022-12-06T03:01:31.532Z,68.7
2022-12-06T03:02:47.642Z,68.3
2022-12-06T03:04:03.905Z,68.5
2022-12-06T03:05:20.021Z,68.2
2022-12-06T03:06:36.209Z,68.5
2022-12-06T03:07:52.407Z,68.5
2022-12-06T03:09:08.588Z,68.2
2022-12-06T03:10:24.787Z,68.8
2022-12-06T03:11:39.982Z,68.7
2022-12-06T03:12:56.176Z,68.1
2022-12-06T03:14:12.437Z,68.8
2022-12-06T03:15:28.622Z,68.8
2022-12-06T03:16:44.747Z,68.8
2022-12-06T03:18:00.937Z,68.5
2022-12-06T03:19:17.115Z,68.7
2022-12-06T03:20:33.308Z,68.8
2022-12-06T03:21:49.573Z,68.1
2022-12-06T03:23:05.693Z,68.2
2022-12-06T03:24:21.869Z,68
2022-12-06T03:25:38.131Z,68.3
2022-12-06T03:26:54.255Z,68.8
2022-12-06T03:28:09.454Z,68.7
2022-12-06T03:29:25.712Z,68.5
2022-12-06T03:30:41.826Z,68.8
2022-12-06T03:31:58.016Z,68.7
2022-12-06T03:33:14.216Z,68.3
2022-12-06T03:34:30.409Z,68.7
2022-12-06T03:35:46.648Z,68
2022-12-06T03:37:02.843Z,68.2
2022-12-06T03:38:18.965Z,68.5
2022-12-06T03:39:35.165Z,68.5
2022-12-06T03:40:51.407Z,68.8
2022-12-06T03:42:07.531Z,68.8
2022-12-06T03:43:23.717Z,68.5
2022-12-06T03:44:39.003Z,68
2022-12-06T03:45:55.119Z,68.8
2022-12-06T03:47:11.311Z,68.7
2022-12-06T03:48:27.491Z,68.8
2022-12-06T03:49:43.754Z,68.8
2022-12-06T03:50:59.868Z,69
2022-12-06T03:52:16.125Z,68.2
2022-12-06T03:53:32.319Z,68.7
2022-12-06T03:54:48.518Z,68.8
2022-12-06T03:56:04.640Z,68.5
2022-12-06T03:57:20.817Z,68.8
2022-12-06T03:58:37.011Z,68.5
2022-12-06T03:59:53.205Z,68.5
2022-12-06T04:01:08.406Z,68.6
2022-12-06T04:02:24.603Z,68.8
2022-12-06T04:03:40.843Z,68.8
2022-12-06T04:04:56.963Z,68.8
2022-12-06T04:06:13.229Z,68.8
2022-12-06T04:07:29.409Z,68.8
2022-12-06T04:08:45.535Z,68.8
2022-12-06T04:10:01.735Z,68.8
2022-12-06T04:11:17.925Z,68.8
2022-12-06T04:12:34.116Z,68.7
2022-12-06T04:13:50.285Z,68.5
2022-12-06T04:15:06.493Z,68.8
2022-12-06T04:16:22.669Z,68.8
2022-12-06T04:17:37.873Z,68.8
2022-12-06T04:18:54.075Z,68.8
2022-12-06T04:20:10.312Z,68.8
2022-12-06T04:21:26.442Z,68.7
2022-12-06T04:22:42.700Z,68.8
2022-12-06T04:23:58.819Z,68.7
2022-12-06T04:25:15.025Z,68.3
2022-12-06T04:26:31.198Z,68.3
2022-12-06T04:27:47.399Z,68
2022-12-06T04:29:03.649Z,68.5
2022-12-06T04:30:19.819Z,68.3
2022-12-06T04:31:35.958Z,68.7
2022-12-06T04:32:51.172Z,68.8
2022-12-06T04:34:07.355Z,68.8
2022-12-06T04:35:23.600Z,68.7
2022-12-06T04:36:39.750Z,68.8
2022-12-06T04:37:55.987Z,68.8
2022-12-06T04:39:12.122Z,68.8
2022-12-06T04:40:28.311Z,68.8
2022-12-06T04:41:44.500Z,69
2022-12-06T04:43:00.678Z,69
2022-12-06T04:44:16.936Z,69.1
2022-12-06T04:45:33.073Z,69
2022-12-06T04:46:49.244Z,69
2022-12-06T04:48:05.440Z,69.1
2022-12-06T04:49:20.648Z,69.1
2022-12-06T04:50:36.844Z,69.1
2022-12-06T04:51:53.026Z,69.1
2022-12-06T04:53:09.276Z,69.1
2022-12-06T04:54:25.400Z,69.1
2022-12-06T04:55:41.594Z,69.1
2022-12-06T04:56:57.841Z,69.3
2022-12-06T04:58:14.026Z,69.3
2022-12-06T04:59:30.172Z,69.3
2022-12-06T05:00:46.398Z,69.4
2022-12-06T05:02:02.548Z,69.3
2022-12-06T05:03:18.731Z,69.2
2022-12-06T05:04:34.912Z,69.1
2022-12-06T05:05:50.182Z,68.9
2022-12-06T05:07:06.315Z,68.6
2022-12-06T05:08:22.560Z,68.3
2022-12-06T05:09:38.703Z,68.6
2022-12-06T05:10:54.925Z,68.7
2022-12-06T05:12:11.080Z,68.8
2022-12-06T05:13:27.268Z,68.8
2022-12-06T05:14:43.447Z,69
2022-12-06T05:15:59.682Z,68.8
2022-12-06T05:17:15.871Z,68.8
2022-12-06T05:18:32.016Z,68.8
2022-12-06T05:19:48.204Z,69
2022-12-06T05:21:04.406Z,69.1
2022-12-06T05:22:19.649Z,69.1
2022-12-06T05:23:35.844Z,69
2022-12-06T05:24:52.036Z,69.1
2022-12-06T05:26:08.168Z,69
2022-12-06T05:27:24.350Z,69.1
2022-12-06T05:28:40.547Z,69
2022-12-06T05:29:56.748Z,69
2022-12-06T05:31:12.925Z,68.8
2022-12-06T05:32:29.112Z,69.1
2022-12-06T05:35:01.537Z,69
2022-12-06T05:36:17.688Z,69
2022-12-06T05:37:33.868Z,69.1
2022-12-06T05:38:49.125Z,69
2022-12-06T05:40:05.267Z,69
2022-12-06T05:41:21.464Z,68.8
2022-12-06T05:42:37.654Z,69
2022-12-06T05:43:53.883Z,69
2022-12-06T05:45:10.068Z,69
2022-12-06T05:46:26.215Z,69
2022-12-06T05:47:42.403Z,69
2022-12-06T05:48:58.597Z,69
2022-12-06T05:50:14.779Z,68.8
2022-12-06T05:51:31.020Z,68.8
2022-12-06T05:52:47.171Z,68.8
2022-12-06T05:54:03.404Z,68.8
2022-12-06T05:55:18.553Z,68.8
2022-12-06T05:56:34.754Z,68.8
2022-12-06T05:57:50.930Z,68.8
2022-12-06T05:59:07.172Z,69
2022-12-06T06:00:23.352Z,69.1
2022-12-06T06:01:39.545Z,69.1
2022-12-06T06:02:55.690Z,69.2
2022-12-06T06:04:11.882Z,69.1
2022-12-06T06:05:28.077Z,69.1
2022-12-06T06:06:44.265Z,69.3
2022-12-06T06:08:00.452Z,69.3
2022-12-06T06:09:16.673Z,69.4
2022-12-06T06:10:32.840Z,69.2
2022-12-06T06:11:48.046Z,69.2
2022-12-06T06:13:04.270Z,69.3
2022-12-06T06:14:20.414Z,69.1
2022-12-06T06:15:36.605Z,69
2022-12-06T06:16:52.835Z,68.8
2022-12-06T06:18:08.981Z,68.8
2022-12-06T06:19:25.181Z,68.8
2022-12-06T06:20:41.360Z,68.8
2022-12-06T06:21:57.553Z,69
2022-12-06T06:23:13.736Z,68.8
2022-12-06T06:24:29.969Z,68.8
2022-12-06T06:25:46.141Z,69
2022-12-06T06:27:02.313Z,69.1
2022-12-06T06:28:17.506Z,69.1
2022-12-06T06:29:33.745Z,69.1
2022-12-06T06:30:49.898Z,69.1
2022-12-06T06:32:06.103Z,69.1
2022-12-06T06:33:22.276Z,69.1
2022-12-06T06:34:38.495Z,69.1
2022-12-06T06:35:54.681Z,69
2022-12-06T06:37:10.849Z,69
2022-12-06T06:38:27.053Z,69.1
2022-12-06T06:39:43.252Z,68.8
2022-12-06T06:40:59.401Z,68.8
2022-12-06T06:42:15.589Z,68.8
2022-12-06T06:43:31.817Z,68.8
2022-12-06T06:44:46.983Z,68.8
2022-12-06T06:46:03.170Z,69.1
2022-12-06T06:47:19.400Z,69.1
2022-12-06T06:48:35.592Z,68.8
2022-12-06T06:49:51.765Z,68.8
2022-12-06T06:51:07.964Z,69.1
2022-12-06T06:52:24.120Z,69
2022-12-06T06:53:40.304Z,69.1
2022-12-06T06:54:56.536Z,69
2022-12-06T06:56:12.700Z,69.1
2022-12-06T06:57:28.909Z,69
2022-12-06T06:58:45.062Z,69.1
2022-12-06T07:00:01.254Z,69
2022-12-06T07:01:16.490Z,69.2
2022-12-06T07:02:32.689Z,69.2
2022-12-06T07:03:48.862Z,69.2
2022-12-06T07:05:05.055Z,69.1
2022-12-06T07:06:21.225Z,69.1
2022-12-06T07:07:37.406Z,69.3
2022-12-06T07:08:53.595Z,69.3
2022-12-06T07:10:09.804Z,69.2
2022-12-06T07:11:25.981Z,69.1
2022-12-06T07:12:42.172Z,69
2022-12-06T07:13:58.351Z,69.2
2022-12-06T07:15:14.576Z,69.2
2022-12-06T07:16:30.740Z,69.2
2022-12-06T07:17:45.972Z,69.1
2022-12-06T07:19:02.129Z,69.2
2022-12-06T07:20:18.316Z,69.2
2022-12-06T07:21:34.509Z,69.2
2022-12-06T07:22:50.699Z,69.2
2022-12-06T07:24:06.895Z,69.1
2022-12-06T07:25:23.101Z,69.2
2022-12-06T07:26:39.262Z,69.2
2022-12-06T07:27:55.473Z,69.2
2022-12-06T07:29:11.672Z,69.3
2022-12-06T07:30:27.832Z,69.2
2022-12-06T07:31:44.013Z,69.3
2022-12-06T07:33:00.223Z,69.2
2022-12-06T07:34:15.442Z,69.3
2022-12-06T07:35:31.609Z,69.3
2022-12-06T07:36:47.795Z,69.3
2022-12-06T07:38:04.005Z,69.4
2022-12-06T07:39:20.191Z,69.5
2022-12-06T07:40:36.384Z,69.5
2022-12-06T07:41:52.559Z,69.6
2022-12-06T07:43:08.750Z,69.6
2022-12-06T07:44:24.938Z,69.6
2022-12-06T07:45:41.134Z,69.5
2022-12-06T07:46:57.302Z,69.4
2022-12-06T07:48:13.513Z,69.4
2022-12-06T07:49:29.689Z,69.4
2022-12-06T07:50:44.911Z,69.4
2022-12-06T07:52:01.071Z,69.4
2022-12-06T07:53:17.275Z,69.3
2022-12-06T07:54:33.462Z,69.4
2022-12-06T07:55:49.660Z,69.4
2022-12-06T07:57:05.840Z,69.4
2022-12-06T07:58:22.035Z,69.4
2022-12-06T07:59:38.211Z,69.2
2022-12-06T08:00:54.401Z,69.2
2022-12-06T08:02:10.597Z,69.2
2022-12-06T08:03:26.796Z,69.3
2022-12-06T08:04:42.973Z,69.2
2022-12-06T08:05:59.152Z,69.3
2022-12-06T08:07:14.378Z,69.3
2022-12-06T08:08:30.563Z,69.3
2022-12-06T08:09:46.742Z,69.3
2022-12-06T08:11:02.950Z,69.4
2022-12-06T08:12:19.129Z,69.1
2022-12-06T08:13:35.315Z,69.2
2022-12-06T08:14:51.501Z,69.4
2022-12-06T08:16:07.699Z,69.4
2022-12-06T08:17:23.885Z,69.4
2022-12-06T08:18:40.085Z,69.5
2022-12-06T08:19:56.256Z,69.5
2022-12-06T08:21:12.442Z,69.3
2022-12-06T08:22:28.637Z,69.3
2022-12-06T08:23:43.846Z,69.2
2022-12-06T08:25:00.026Z,68.8
2022-12-06T08:26:16.224Z,69
2022-12-06T08:27:32.418Z,69
2022-12-06T08:28:48.590Z,68.8
2022-12-06T08:30:04.792Z,68.8
2022-12-06T08:31:20.969Z,68.8
2022-12-06T08:32:37.174Z,68.6
2022-12-06T08:33:53.369Z,68.9
2022-12-06T08:35:09.540Z,68.8
2022-12-06T08:36:25.730Z,68.8
2022-12-06T08:37:41.930Z,68.7
2022-12-06T08:38:58.126Z,68.6
2022-12-06T08:40:13.311Z,68.3
2022-12-06T08:41:29.507Z,68.3
2022-12-06T08:42:45.705Z,68.3
2022-12-06T08:44:01.894Z,68.2
2022-12-06T08:45:18.069Z,68.1
2022-12-06T08:46:34.271Z,68.1
2022-12-06T08:47:49.479Z,68.2
2022-12-06T08:49:05.656Z,68.1
2022-12-06T08:50:21.848Z,68
2022-12-06T08:51:38.041Z,68.1
2022-12-06T08:52:54.228Z,68.1
2022-12-06T08:54:10.419Z,68.2
2022-12-06T08:55:26.603Z,68.3
2022-12-06T08:56:42.791Z,68
2022-12-06T08:57:58.985Z,68.2
2022-12-06T08:59:15.177Z,68.2
2022-12-06T09:00:31.375Z,68.3
2022-12-06T09:01:47.554Z,68.3
2022-12-06T09:03:03.741Z,68.3
2022-12-06T09:04:18.952Z,68.3
2022-12-06T09:05:35.150Z,68.3
2022-12-06T09:06:51.316Z,68.3
2022-12-06T09:08:07.512Z,68.4
2022-12-06T09:09:23.720Z,68.4
2022-12-06T09:10:39.903Z,68.3
2022-12-06T09:11:56.083Z,68.3
2022-12-06T09:13:12.272Z,68.3
2022-12-06T09:14:28.472Z,68.3
2022-12-06T09:15:44.652Z,68.3
2022-12-06T09:17:00.832Z,68.3
2022-12-06T09:18:17.035Z,68.2
2022-12-06T09:19:33.211Z,68.4
2022-12-06T09:20:48.414Z,68.3
2022-12-06T09:22:04.619Z,68.3
2022-12-06T09:23:20.807Z,68.3
2022-12-06T09:24:37.003Z,68.2
2022-12-06T09:25:53.175Z,68.2
2022-12-06T09:27:09.364Z,68.3
2022-12-06T09:28:25.555Z,68.2
2022-12-06T09:29:41.753Z,68.3
2022-12-06T09:30:57.937Z,68.3
2022-12-06T09:32:14.114Z,68.3
2022-12-06T09:33:30.328Z,68.5
2022-12-06T09:34:46.500Z,68.5
2022-12-06T09:36:02.681Z,68.5
2022-12-06T09:37:17.904Z,68.6
2022-12-06T09:38:34.087Z,68.5
2022-12-06T09:39:50.283Z,68.6
2022-12-06T09:41:06.462Z,68.6
2022-12-06T09:42:22.654Z,68.6
2022-12-06T09:43:38.847Z,68.5
2022-12-06T09:44:55.025Z,68.4
2022-12-06T09:46:11.223Z,68.5
2022-12-06T09:47:27.426Z,68.6
2022-12-06T09:48:43.597Z,68.5
2022-12-06T09:49:59.797Z,68.5
2022-12-06T09:51:15.985Z,68.5
2022-12-06T09:52:32.178Z,68.4
2022-12-06T09:53:47.366Z,68.5
2022-12-06T09:55:03.562Z,68.5
2022-12-06T09:56:19.765Z,68.6
2022-12-06T09:57:35.930Z,68.5
2022-12-06T09:58:52.139Z,68.6
2022-12-06T10:00:08.314Z,68.6
2022-12-06T10:01:24.500Z,68.5
2022-12-06T10:02:40.694Z,68.5
2022-12-06T10:03:56.887Z,68.4
2022-12-06T10:05:13.072Z,68.5
2022-12-06T10:06:29.279Z,68.4
2022-12-06T10:07:45.460Z,68.3
2022-12-06T10:09:01.651Z,68.3
2022-12-06T10:10:16.861Z,68.2
2022-12-06T10:11:33.040Z,68.4
2022-12-06T10:12:49.212Z,68.5
2022-12-06T10:14:05.405Z,68.6
2022-12-06T10:15:21.607Z,68.5
2022-12-06T10:16:37.791Z,68.6
2022-12-06T10:17:53.981Z,68.5
2022-12-06T10:19:10.185Z,68.6
2022-12-06T10:20:26.369Z,68.6
2022-12-06T10:21:42.566Z,68.7
2022-12-06T10:22:58.740Z,68.6
2022-12-06T10:24:14.937Z,68.6
2022-12-06T10:25:31.135Z,68.5
2022-12-06T10:26:46.309Z,68.5
2022-12-06T10:28:02.497Z,68.4
2022-12-06T10:29:18.711Z,68.5
2022-12-06T10:30:34.895Z,68.6
2022-12-06T10:31:51.093Z,68.6
2022-12-06T10:33:07.278Z,68.6
2022-12-06T10:34:23.453Z,68.6
2022-12-06T10:35:39.625Z,68.5
2022-12-06T10:36:55.837Z,68.5
2022-12-06T10:38:12.005Z,68.5
2022-12-06T10:39:28.203Z,68.6
2022-12-06T10:40:44.383Z,68.6
2022-12-06T10:42:00.601Z,68.6
2022-12-06T10:43:15.797Z,68.5
2022-12-06T10:44:31.990Z,68.6
2022-12-06T10:45:48.164Z,68.6
2022-12-06T10:47:04.364Z,68.6
2022-12-06T10:48:20.549Z,68.7
2022-12-06T10:49:36.754Z,68.7
2022-12-06T10:50:52.919Z,68.8
2022-12-06T10:52:09.100Z,68.8
2022-12-06T10:53:25.286Z,68.8
2022-12-06T10:54:41.510Z,68.7
2022-12-06T10:55:57.672Z,68.7
2022-12-06T10:57:13.876Z,68.6
2022-12-06T10:58:30.043Z,68.6
2022-12-06T10:59:45.283Z,68.5
2022-12-06T11:01:01.471Z,68.5
2022-12-06T11:02:17.663Z,68.4
2022-12-06T11:03:33.859Z,68.2
2022-12-06T11:04:50.017Z,68.4
2022-12-06T11:06:06.203Z,68.4
2022-12-06T11:07:22.423Z,68.2
2022-12-06T11:08:38.599Z,68.3
2022-12-06T11:09:54.789Z,68.2
2022-12-06T11:11:10.961Z,68.1
2022-12-06T11:12:27.167Z,67.9
2022-12-06T11:13:43.332Z,67.9
2022-12-06T11:14:59.552Z,67.6
2022-12-06T11:16:14.761Z,67.6
2022-12-06T11:17:30.938Z,67.3
2022-12-06T11:18:47.142Z,67.4
2022-12-06T11:20:03.334Z,67.4
2022-12-06T11:21:19.506Z,67.2
2022-12-06T11:22:35.709Z,67.4
2022-12-06T11:23:51.887Z,67.5
2022-12-06T11:25:08.073Z,67.2
2022-12-06T11:26:24.273Z,67.5
2022-12-06T11:27:40.430Z,67.7
2022-12-06T11:28:56.618Z,67.7
2022-12-06T11:30:12.832Z,67.7
2022-12-06T11:32:45.211Z,67.7
2022-12-06T11:34:00.420Z,67.7
2022-12-06T11:35:16.611Z,67.8
2022-12-06T11:36:32.772Z,67.8
2022-12-06T11:37:48.995Z,67.8
2022-12-06T11:39:05.185Z,67.9
2022-12-06T11:40:21.362Z,67.8
2022-12-06T11:41:37.562Z,67.7
2022-12-06T11:42:53.720Z,67.8
2022-12-06T11:44:09.907Z,67.9
2022-12-06T11:45:26.098Z,67.8
2022-12-06T11:46:42.269Z,67.9
2022-12-06T11:47:58.470Z,67.9
2022-12-06T11:49:14.684Z,68
2022-12-06T11:50:29.896Z,68
2022-12-06T11:51:46.051Z,67.9
2022-12-06T11:53:02.277Z,68
2022-12-06T11:54:18.458Z,68
2022-12-06T11:55:34.610Z,68
2022-12-06T11:56:50.788Z,68.1
2022-12-06T11:58:07.020Z,68
2022-12-06T11:59:23.169Z,68.1
2022-12-06T12:00:39.384Z,68.1
2022-12-06T12:01:55.572Z,68.1
2022-12-06T12:03:11.760Z,68.1
2022-12-06T12:04:27.918Z,68.1
2022-12-06T12:05:44.139Z,68.2
2022-12-06T12:06:59.313Z,68.1
2022-12-06T12:08:15.492Z,68.2
2022-12-06T12:09:31.720Z,68.2
2022-12-06T12:10:47.909Z,68.2
2022-12-06T12:12:04.098Z,68.2
2022-12-06T12:13:20.242Z,68.3
2022-12-06T12:14:36.428Z,68.2
2022-12-06T12:15:52.659Z,68.3
2022-12-06T12:17:08.845Z,68.3
2022-12-06T12:18:25.024Z,68.3
2022-12-06T12:19:41.220Z,68.3
2022-12-06T12:20:57.364Z,68.4
2022-12-06T12:22:13.551Z,68.4
2022-12-06T12:23:28.802Z,68.4
2022-12-06T12:24:44.989Z,68.3
2022-12-06T12:26:01.166Z,68.4
2022-12-06T12:27:17.319Z,68.4
2022-12-06T12:28:33.550Z,68.3
2022-12-06T12:29:49.690Z,68.2
2022-12-06T12:31:05.933Z,68.3
2022-12-06T12:32:22.117Z,68
2022-12-06T12:33:38.262Z,67.9
2022-12-06T12:34:54.490Z,67.9
2022-12-06T12:36:10.624Z,67.8
2022-12-06T12:37:26.805Z,67.9
2022-12-06T12:38:43.049Z,67.9
2022-12-06T12:39:58.195Z,67.9
2022-12-06T12:41:14.435Z,68.1
2022-12-06T12:42:30.629Z,68
2022-12-06T12:43:46.758Z,67.9
2022-12-06T12:45:02.951Z,68.1
2022-12-06T12:46:19.144Z,68
2022-12-06T12:47:35.370Z,68
2022-12-06T12:48:51.509Z,67.8
2022-12-06T12:50:07.753Z,67.9
2022-12-06T12:51:24.035Z,68.1
2022-12-06T12:52:40.072Z,68.3
2022-12-06T12:53:56.266Z,68.2
2022-12-06T12:56:28.811Z,68.2
2022-12-06T12:57:44.004Z,68.2
2022-12-06T12:59:00.170Z,68.1
2022-12-06T13:00:16.362Z,67.9
2022-12-06T13:01:32.573Z,68.2
2022-12-06T13:02:47.758Z,68.1
2022-12-06T13:04:03.959Z,68.2
2022-12-06T13:05:20.162Z,68.3
2022-12-06T13:06:36.348Z,68.3
2022-12-06T13:07:52.516Z,68.4
2022-12-06T13:09:08.710Z,68.3
2022-12-06T13:10:24.900Z,68.4
2022-12-06T13:11:41.073Z,68.3
2022-12-06T13:12:57.252Z,68.3
2022-12-06T13:14:13.460Z,68.4
2022-12-06T13:15:29.629Z,68.2
2022-12-06T13:16:45.844Z,68.2
2022-12-06T13:18:02.020Z,68.2
2022-12-06T13:19:17.230Z,67.8
2022-12-06T13:20:33.405Z,67.7
2022-12-06T13:21:49.577Z,67.9
2022-12-06T13:23:05.764Z,68.2
2022-12-06T13:24:21.965Z,68.2
2022-12-06T13:25:38.166Z,68.2
2022-12-06T13:26:54.364Z,68.4
2022-12-06T13:28:10.548Z,68.2
2022-12-06T13:29:26.733Z,68.3
2022-12-06T13:30:42.887Z,68.4
2022-12-06T13:31:59.108Z,68.4
2022-12-06T13:33:15.296Z,68
2022-12-06T13:34:31.470Z,68.2
2022-12-06T13:35:46.675Z,68.4
2022-12-06T13:37:02.839Z,68.4
2022-12-06T13:38:19.039Z,68.5
2022-12-06T13:39:35.247Z,68.5
2022-12-06T13:40:51.440Z,68.6
2022-12-06T13:42:07.613Z,68.6
2022-12-06T13:43:23.788Z,68.5
2022-12-06T13:44:40.004Z,68.5
2022-12-06T13:45:56.177Z,68.3
2022-12-06T13:47:12.346Z,68.1
2022-12-06T13:48:28.558Z,68.2
2022-12-06T13:49:44.726Z,68.3
2022-12-06T13:51:00.930Z,68.4
2022-12-06T13:52:16.140Z,68.3
2022-12-06T13:53:32.302Z,68.4
2022-12-06T13:54:48.502Z,68.3
2022-12-06T13:56:04.704Z,68.3
2022-12-06T13:57:20.880Z,68.4
2022-12-06T13:58:37.043Z,68.3
2022-12-06T13:59:53.258Z,68.4
2022-12-06T14:01:09.408Z,68.3
2022-12-06T14:02:25.642Z,68.4
2022-12-06T14:03:41.793Z,68.5
2022-12-06T14:04:58.000Z,68.4
2022-12-06T14:06:14.201Z,68.4
2022-12-06T14:07:30.385Z,68.4
2022-12-06T14:08:45.562Z,68.3
2022-12-06T14:10:01.779Z,68.2
2022-12-06T14:11:17.956Z,68.3
2022-12-06T14:12:34.142Z,68.4
2022-12-06T14:13:50.297Z,68.5
2022-12-06T14:15:06.497Z,68.4
2022-12-06T14:16:22.690Z,68.4
2022-12-06T14:17:38.902Z,68.3
2022-12-06T14:18:55.083Z,68.4
2022-12-06T14:20:11.272Z,68.5
2022-12-06T14:21:27.470Z,68.4
2022-12-06T14:22:43.605Z,68.6
2022-12-06T14:23:59.000Z,68.5
2022-12-06T14:25:15.044Z,68.4
2022-12-06T14:26:31.222Z,68.5
2022-12-06T14:27:47.374Z,68.6
2022-12-06T14:29:03.560Z,68.6
2022-12-06T14:30:19.797Z,68.6
2022-12-06T14:31:35.969Z,68.5
2022-12-06T14:32:52.162Z,68.5
2022-12-06T14:34:08.353Z,68.3
2022-12-06T14:35:24.530Z,68.1
2022-12-06T14:36:40.732Z,68.5
2022-12-06T14:37:56.919Z,68.6
2022-12-06T14:39:13.067Z,68.6
2022-12-06T14:40:29.246Z,68.6
2022-12-06T14:41:44.491Z,68.6
2022-12-06T14:43:00.687Z,68.7
2022-12-06T14:44:16.837Z,68.6
2022-12-06T14:45:33.055Z,68.6
2022-12-06T14:46:49.208Z,68.7
2022-12-06T14:48:05.427Z,68.6
2022-12-06T14:49:21.623Z,68.7
2022-12-06T14:50:37.803Z,68.8
2022-12-06T14:51:53.995Z,68.7
2022-12-06T14:53:10.150Z,68.3
2022-12-06T14:54:26.322Z,68.2
2022-12-06T14:55:42.556Z,68.3
2022-12-06T14:56:58.741Z,68.5
2022-12-06T14:58:13.946Z,68.5
2022-12-06T14:59:30.097Z,68.8
2022-12-06T15:00:46.330Z,68.7
2022-12-06T15:02:02.469Z,68.7
2022-12-06T15:03:18.702Z,68.8
2022-12-06T15:04:34.889Z,68.7
2022-12-06T15:05:51.026Z,68.6
2022-12-06T15:07:07.255Z,68.7
2022-12-06T15:08:23.448Z,68.6
2022-12-06T15:09:39.588Z,68.7
2022-12-06T15:10:55.824Z,68.7
2022-12-06T15:12:12.001Z,68.7
2022-12-06T15:13:28.202Z,68.7
2022-12-06T15:14:43.401Z,68.4
2022-12-06T15:15:59.546Z,68.5
2022-12-06T15:17:15.724Z,68.6
2022-12-06T15:18:31.909Z,68.5
2022-12-06T15:19:48.148Z,68.7
2022-12-06T15:21:04.348Z,68.7
2022-12-06T15:22:20.528Z,68.6
2022-12-06T15:23:36.712Z,68.3
2022-12-06T15:24:52.851Z,68.5
2022-12-06T15:26:09.089Z,68.6
2022-12-06T15:27:25.286Z,68.6
2022-12-06T15:28:41.470Z,68.5
2022-12-06T15:29:57.594Z,68.5
2022-12-06T15:31:12.847Z,68.5
2022-12-06T15:32:29.033Z,68.2
2022-12-06T15:33:45.227Z,68.5
2022-12-06T15:35:01.377Z,68.5
2022-12-06T15:36:17.555Z,68.5
2022-12-06T15:37:33.786Z,68.6
2022-12-06T15:38:49.988Z,68.7
2022-12-06T15:40:06.107Z,68.7
2022-12-06T15:41:22.348Z,68.7
2022-12-06T15:42:38.535Z,68.6
2022-12-06T15:43:54.728Z,68.8
2022-12-06T15:45:10.856Z,68.5
2022-12-06T15:46:27.102Z,68.6
2022-12-06T15:47:42.312Z,68.4
2022-12-06T15:48:58.500Z,68.4
2022-12-06T15:50:14.000Z,68.7
2022-12-06T15:51:30.882Z,68.8
2022-12-06T15:52:47.058Z,68.7
2022-12-06T15:54:03.197Z,68.8
2022-12-06T15:55:19.382Z,68.8
2022-12-06T15:56:35.561Z,68.7
2022-12-06T15:57:51.747Z,68.7
2022-12-06T15:59:07.986Z,68.6
2022-12-06T16:00:24.119Z,68.4
2022-12-06T16:01:40.363Z,68.6
2022-12-06T16:02:56.512Z,68.4
2022-12-06T16:04:11.771Z,68.4
2022-12-06T16:05:27.958Z,68.5
2022-12-06T16:06:44.138Z,68.6
2022-12-06T16:08:00.258Z,68.6
2022-12-06T16:09:16.452Z,68.6
2022-12-06T16:10:32.637Z,68.7
2022-12-06T16:11:48.891Z,68.7
2022-12-06T16:13:05.063Z,68.5
2022-12-06T16:14:21.268Z,68.6
2022-12-06T16:15:37.387Z,68.7
2022-12-06T16:16:53.626Z,68.6
2022-12-06T16:18:09.827Z,68.6
2022-12-06T16:19:26.016Z,68.6
2022-12-06T16:20:41.163Z,68.6
2022-12-06T16:21:57.335Z,68.7
2022-12-06T16:23:13.581Z,68.7
2022-12-06T16:24:29.776Z,68.7
2022-12-06T16:25:45.958Z,68.7
2022-12-06T16:27:02.142Z,68.7
2022-12-06T16:28:18.348Z,68.7
2022-12-06T16:29:34.520Z,68.7
2022-12-06T16:30:50.705Z,68.7
2022-12-06T16:32:06.910Z,68.7
2022-12-06T16:33:23.034Z,68.7
2022-12-06T16:34:39.205Z,68.7
2022-12-06T16:35:55.398Z,68.7
2022-12-06T16:37:10.611Z,68.8
2022-12-06T16:38:26.859Z,68.7
2022-12-06T16:39:43.046Z,68.7
2022-12-06T16:40:59.175Z,68.7
2022-12-06T16:42:15.348Z,68.7
2022-12-06T16:43:31.599Z,68.7
2022-12-06T16:44:47.725Z,68.8
2022-12-06T16:46:03.983Z,68.8
2022-12-06T16:48:36.283Z,68.9
2022-12-06T16:49:52.542Z,68.8
2022-12-06T16:51:08.672Z,68.9
2022-12-06T16:52:24.923Z,69
2022-12-06T16:53:40.111Z,69
2022-12-06T16:54:56.239Z,69
2022-12-06T16:56:12.429Z,69
2022-12-06T16:57:28.608Z,68.8
2022-12-06T16:58:44.872Z,69
2022-12-06T17:00:00.985Z,69
2022-12-06T17:01:17.250Z,68.8
2022-12-06T17:02:33.366Z,69